Time;durP1;ratioP1;P1;durP2;ratioP2;P2;SDS_P1;SDS_P2;PMS_P1;PMS_P2;Temp;Humidity;BMP_temperature;BMP_pressure;BME280_temperature;BME280_humidity;BME280_pressure;Samples;Min_cycle;Max_cycle;Signal;HPM_P1;HPM_P2
2022/07/21 00:00:27;;;;;;;8.75;6.13;;;;;;;18.06;100.00;100789.81;5057587;28;20383;-73
2022/07/21 00:02:54;;;;;;;8.80;7.50;;;;;;;17.99;100.00;100787.72;5060173;28;20029;-73
2022/07/21 00:05:20;;;;;;;8.95;6.90;;;;;;;17.75;100.00;100755.81;5071090;28;20127;-74
2022/07/21 00:07:46;;;;;;;8.18;7.22;;;;;;;17.79;100.00;100758.16;5075458;28;20115;-73
2022/07/21 00:10:12;;;;;;;10.02;7.90;;;;;;;17.73;100.00;100758.59;5062970;28;20021;-74
2022/07/21 00:12:38;;;;;;;8.98;7.53;;;;;;;17.60;100.00;100746.34;5053733;28;20033;-74
2022/07/21 00:15:04;;;;;;;10.50;8.88;;;;;;;17.69;100.00;100769.56;5052994;28;20380;-74
2022/07/21 00:17:30;;;;;;;10.57;8.35;;;;;;;17.56;100.00;100755.50;5059448;28;20099;-72
2022/07/21 00:19:55;;;;;;;10.55;7.72;;;;;;;17.49;100.00;100743.59;5069765;28;20025;-75
2022/07/21 00:22:21;;;;;;;10.90;8.00;;;;;;;17.55;100.00;100759.91;5058514;28;20033;-75
2022/07/21 00:24:46;;;;;;;9.32;7.60;;;;;;;17.46;100.00;100751.78;5071138;28;20115;-74
2022/07/21 00:27:12;;;;;;;16.35;9.02;;;;;;;17.43;100.00;100755.50;5064950;28;20458;-73
2022/07/21 00:29:37;;;;;;;10.23;8.60;;;;;;;17.36;100.00;100738.31;5052924;28;20075;-72
2022/07/21 00:32:04;;;;;;;12.93;9.50;;;;;;;17.29;100.00;100727.28;5063032;28;20497;-73
2022/07/21 00:34:30;;;;;;;13.20;8.25;;;;;;;17.40;100.00;100749.56;5061109;28;20059;-74
2022/07/21 00:36:55;;;;;;;12.05;9.30;;;;;;;17.28;100.00;100730.91;5066222;28;20040;-73
2022/07/21 00:39:20;;;;;;;11.20;9.77;;;;;;;17.33;100.00;100744.72;5052164;28;20048;-73
2022/07/21 00:41:46;;;;;;;13.10;9.63;;;;;;;17.42;100.00;100758.28;5052547;28;20028;-73
2022/07/21 00:44:26;;;;;;;11.98;9.23;;;;;;;17.41;100.00;100759.22;5080919;28;20552;-73
2022/07/21 00:46:52;;;;;;;12.00;10.18;;;;;;;17.29;100.00;100740.56;5062307;28;20029;-73
2022/07/21 00:49:18;;;;;;;10.93;9.70;;;;;;;17.31;100.00;100745.75;5061980;28;20028;-73
2022/07/21 00:51:43;;;;;;;13.85;10.95;;;;;;;17.41;100.00;100753.91;5081197;28;20035;-74
2022/07/21 00:54:09;;;;;;;14.07;10.20;;;;;;;17.41;100.00;100767.19;5068631;28;20032;-73
2022/07/21 00:56:34;;;;;;;12.27;10.73;;;;;;;17.38;100.00;100760.31;5069112;28;20026;-74
2022/07/21 00:59:00;;;;;;;13.77;10.57;;;;;;;17.36;100.00;100752.47;5077448;28;20105;-75
2022/07/21 01:01:26;;;;;;;17.30;11.68;;;;;;;17.24;100.00;100729.41;5077285;28;20028;-74
2022/07/21 01:03:51;;;;;;;14.23;11.13;;;;;;;17.30;100.00;100736.94;5064833;28;20032;-75
2022/07/21 01:06:16;;;;;;;11.77;10.57;;;;;;;17.45;100.00;100758.03;5068260;28;20061;-75
2022/07/21 01:08:42;;;;;;;14.85;11.77;;;;;;;17.46;100.00;100759.75;5062427;28;20064;-75
2022/07/21 01:11:07;;;;;;;15.52;11.43;;;;;;;17.50;100.00;100764.75;5068303;28;20029;-75
2022/07/21 01:13:33;;;;;;;15.77;12.05;;;;;;;17.43;100.00;100755.50;5070876;28;20036;-74
2022/07/21 01:15:58;;;;;;;14.18;11.52;;;;;;;17.42;100.00;100750.28;5058517;28;20021;-74
2022/07/21 01:18:24;;;;;;;14.18;11.13;;;;;;;17.26;100.00;100732.84;5056297;28;20024;-74
2022/07/21 01:20:54;;;;;;;16.13;11.55;;;;;;;17.52;100.00;100769.91;5079294;28;20020;-74
2022/07/21 01:23:20;;;;;;;12.65;10.90;;;;;;;17.47;100.00;100758.81;5067634;28;20101;-74
2022/07/21 01:25:50;;;;;;;12.50;10.35;;;;;;;17.55;100.00;100770.56;5085458;28;20029;-74
2022/07/21 01:28:16;;;;;;;12.82;11.52;;;;;;;17.37;100.00;100738.19;5074512;28;20052;-74
2022/07/21 01:30:42;;;;;;;13.90;10.55;;;;;;;17.61;100.00;100770.13;5066719;28;20108;-74
2022/07/21 01:33:07;;;;;;;13.23;11.60;;;;;;;17.60;100.00;100762.28;5084599;28;20032;-76
2022/07/21 01:35:33;;;;;;;14.02;9.98;;;;;;;17.55;100.00;100751.09;5074622;28;20107;-75
2022/07/21 01:37:59;;;;;;;14.70;10.13;;;;;;;17.48;100.00;100729.44;5068245;28;20414;-76
2022/07/21 01:43:08;;;;;;;12.80;10.10;;;;;;;17.46;100.00;100734.03;5056427;28;20070;-74
2022/07/21 01:45:34;;;;;;;13.48;9.88;;;;;;;17.46;100.00;100734.03;5067014;28;20538;-74
2022/07/21 01:47:59;;;;;;;14.18;9.75;;;;;;;17.51;100.00;100745.16;5057026;28;20025;-73
2022/07/21 01:50:28;;;;;;;12.73;9.60;;;;;;;17.47;100.00;100740.19;5056510;28;20032;-74
2022/07/21 01:52:55;;;;;;;11.43;10.15;;;;;;;17.18;100.00;100692.69;5059207;28;20035;-74
2022/07/21 01:55:21;;;;;;;13.38;9.55;;;;;;;17.43;100.00;100730.75;5067361;28;20104;-74
2022/07/21 01:57:46;;;;;;;11.85;10.15;;;;;;;17.43;100.00;100728.09;5069514;28;20032;-74
2022/07/21 02:00:12;;;;;;;14.35;10.02;;;;;;;17.37;100.00;100716.13;5069283;28;20482;-73
2022/07/21 02:02:37;;;;;;;13.15;10.57;;;;;;;17.48;100.00;100740.06;5073149;28;20029;-72
2022/07/21 02:05:03;;;;;;;16.50;10.73;;;;;;;17.45;100.00;100732.31;5056532;28;20029;-74
2022/07/21 02:07:28;;;;;;;13.35;10.23;;;;;;;17.34;100.00;100717.16;5077120;28;20039;-73
2022/07/21 02:09:54;;;;;;;12.45;10.35;;;;;;;17.49;100.00;100744.44;5064950;28;20036;-74
2022/07/21 02:12:19;;;;;;;12.68;11.38;;;;;;;17.37;100.00;100726.75;5075212;28;20024;-75
2022/07/21 02:14:44;;;;;;;12.35;10.63;;;;;;;17.44;100.00;100743.09;5062798;28;20455;-75
2022/07/21 02:17:10;;;;;;;12.38;11.13;;;;;;;17.43;100.00;100746.69;5064012;28;20032;-73
2022/07/21 02:19:35;;;;;;;12.55;10.98;;;;;;;17.35;100.00;100732.16;5074567;28;20028;-74
2022/07/21 02:22:01;;;;;;;17.35;12.82;;;;;;;17.43;100.00;100749.34;5067834;28;20410;-73
2022/07/21 02:24:26;;;;;;;12.77;11.48;;;;;;;17.42;100.00;100742.31;5066830;28;20089;-75
2022/07/21 02:26:51;;;;;;;13.13;11.75;;;;;;;17.41;100.00;100733.50;5087483;28;20016;-75
2022/07/21 02:29:17;;;;;;;14.02;11.43;;;;;;;17.19;100.00;100699.72;5083949;28;20103;-75
2022/07/21 02:31:42;;;;;;;13.63;12.07;;;;;;;17.42;100.00;100731.69;5078566;28;20372;-76
2022/07/21 02:34:07;;;;;;;13.00;11.70;;;;;;;17.41;100.00;100732.66;5089149;28;20051;-75
2022/07/21 02:36:34;;;;;;;16.63;11.98;;;;;;;17.36;100.00;100739.19;5074643;28;20033;-75
2022/07/21 02:38:59;;;;;;;14.38;11.75;;;;;;;17.52;100.00;100748.66;5059834;28;20036;-74
2022/07/21 02:41:24;;;;;;;15.30;12.38;;;;;;;17.30;100.00;100704.25;5069232;28;20033;-74
2022/07/21 02:43:50;;;;;;;13.43;11.88;;;;;;;17.51;100.00;100742.50;5065494;28;20086;-73
2022/07/21 02:46:15;;;;;;;13.93;11.38;;;;;;;17.42;100.00;100727.25;5069787;28;20064;-74
2022/07/21 02:48:40;;;;;;;14.00;12.10;;;;;;;17.55;100.00;100753.75;5057710;28;20076;-74
2022/07/21 02:51:06;;;;;;;14.05;11.52;;;;;;;17.14;100.00;100685.91;5068561;28;20036;-74
2022/07/21 02:53:31;;;;;;;13.60;11.18;;;;;;;17.41;100.00;100728.19;5071493;28;20032;-74
2022/07/21 02:55:57;;;;;;;13.95;12.35;;;;;;;17.47;100.00;100741.06;5076028;28;20029;-75
2022/07/21 02:58:27;;;;;;;14.88;11.40;;;;;;;17.38;100.00;100731.06;5075787;28;20082;-73
2022/07/21 03:00:57;;;;;;;18.48;12.48;;;;;;;17.49;100.00;100749.75;5074466;28;20086;-74
2022/07/21 03:03:26;;;;;;;15.13;13.45;;;;;;;17.53;100.00;100745.06;5059737;28;20059;-73
2022/07/21 03:05:51;;;;;;;15.95;12.43;;;;;;;17.37;100.00;100724.91;5055667;28;20060;-73
2022/07/21 03:08:17;;;;;;;15.65;14.05;;;;;;;17.50;100.00;100740.81;5057364;28;20034;-73
2022/07/21 03:10:43;;;;;;;17.70;13.40;;;;;;;17.43;100.00;100738.72;5087758;27;20033;-72
2022/07/21 03:13:09;;;;;;;18.08;14.25;;;;;;;17.47;100.00;100750.81;5050805;28;20075;-75
2022/07/21 03:15:35;;;;;;;17.08;15.00;;;;;;;17.49;100.00;100748.91;5064640;28;20518;-75
2022/07/21 03:18:01;;;;;;;16.88;14.98;;;;;;;17.46;100.00;100738.50;5085831;28;20040;-75
2022/07/21 03:20:28;;;;;;;17.08;14.23;;;;;;;17.52;100.00;100744.22;5076535;28;20032;-75
2022/07/21 03:22:53;;;;;;;17.15;14.65;;;;;;;17.47;100.00;100735.75;5081835;28;20112;-75
2022/07/21 03:25:19;;;;;;;15.48;13.95;;;;;;;17.55;100.00;100749.28;5066039;28;20107;-74
2022/07/21 03:27:45;;;;;;;18.70;14.07;;;;;;;17.55;100.00;100751.09;5080716;28;20025;-73
2022/07/21 03:30:12;;;;;;;16.00;14.30;;;;;;;17.30;100.00;100713.03;5059076;28;20099;-73
2022/07/21 03:32:37;;;;;;;17.25;14.10;;;;;;;17.32;100.00;100721.75;5065269;28;20082;-76
2022/07/21 03:35:04;;;;;;;17.70;13.75;;;;;;;17.40;100.00;100733.63;5065838;28;20044;-73
2022/07/21 03:37:30;;;;;;;17.70;14.15;;;;;;;17.50;100.00;100748.78;5063998;28;20024;-76
2022/07/21 03:39:56;;;;;;;20.15;14.32;;;;;;;17.30;100.00;100723.66;5055448;28;20391;-75
2022/07/21 03:42:22;;;;;;;18.10;15.32;;;;;;;17.40;100.00;100730.97;5060683;28;20021;-75
2022/07/21 03:44:47;;;;;;;19.13;14.38;;;;;;;17.36;100.00;100738.31;5055788;28;20065;-75
2022/07/21 03:47:13;;;;;;;17.98;14.38;;;;;;;17.30;100.00;100728.16;5063142;28;20029;-75
2022/07/21 03:49:38;;;;;;;16.75;13.80;;;;;;;17.26;100.00;100719.56;5066852;28;20033;-74
2022/07/21 03:52:04;;;;;;;16.35;14.65;;;;;;;17.28;100.00;100725.59;5053445;28;20020;-76
2022/07/21 03:54:29;;;;;;;17.75;14.65;;;;;;;17.16;100.00;100701.72;5070405;28;20029;-75
2022/07/21 03:56:55;;;;;;;18.38;15.63;;;;;;;17.31;100.00;100730.69;5055276;28;20024;-73
2022/07/21 03:59:20;;;;;;;18.15;15.63;;;;;;;17.28;100.00;100733.56;5058501;28;20468;-74
2022/07/21 04:01:45;;;;;;;21.35;15.80;;;;;;;17.36;100.00;100746.28;5058585;28;20491;-74
2022/07/21 04:04:11;;;;;;;18.30;14.18;;;;;;;17.33;100.00;100738.56;5053587;28;20029;-74
2022/07/21 04:06:36;;;;;;;20.15;15.48;;;;;;;17.28;100.00;100730.91;5064388;28;20036;-74
2022/07/21 04:09:03;;;;;;;26.30;16.20;;;;;;;17.10;100.00;100699.53;5064919;28;20478;-73
2022/07/21 04:11:30;;;;;;;17.50;15.00;;;;;;;17.30;100.00;100734.28;5060493;28;20037;-74
2022/07/21 04:13:55;;;;;;;17.33;14.57;;;;;;;17.30;100.00;100730.81;5076922;28;20036;-75
2022/07/21 04:16:21;;;;;;;18.05;16.08;;;;;;;17.33;100.00;100735.91;5054898;28;20048;-75
2022/07/21 04:18:46;;;;;;;17.67;15.70;;;;;;;17.30;100.00;100733.47;5059441;28;20088;-74
2022/07/21 04:21:11;;;;;;;17.55;15.73;;;;;;;17.24;100.00;100718.78;5075405;28;20112;-73
2022/07/21 04:23:37;;;;;;;16.92;14.43;;;;;;;17.38;100.00;100733.72;5073261;28;20119;-74
2022/07/21 04:26:02;;;;;;;16.73;13.77;;;;;;;17.36;100.00;100731.19;5061928;28;20056;-74
2022/07/21 04:28:27;;;;;;;17.75;15.40;;;;;;;17.34;100.00;100719.81;5058673;28;20442;-73
2022/07/21 04:30:53;;;;;;;20.10;14.75;;;;;;;17.35;100.00;100726.84;5071092;28;20471;-74
2022/07/21 04:33:18;;;;;;;21.48;15.50;;;;;;;17.38;100.00;100725.75;5054880;28;20530;-74
2022/07/21 04:35:44;;;;;;;19.88;16.25;;;;;;;17.30;100.00;100721.00;5081737;28;20039;-74
2022/07/21 04:38:10;;;;;;;20.20;16.70;;;;;;;17.42;100.00;100734.34;5063547;28;20029;-74
2022/07/21 04:40:36;;;;;;;18.58;15.07;;;;;;;17.43;100.00;100739.56;5029418;28;20082;-72
2022/07/21 04:43:01;;;;;;;19.65;16.05;;;;;;;17.33;100.00;100711.97;5028144;28;20056;-75
2022/07/21 04:45:27;;;;;;;17.25;15.05;;;;;;;17.46;100.00;100727.88;5026903;28;20406;-74
2022/07/21 04:47:54;;;;;;;18.05;14.50;;;;;;;17.34;100.00;100708.34;5040850;28;20964;-72
2022/07/21 04:50:21;;;;;;;24.85;15.02;;;;;;;17.36;100.00;100712.59;5069371;28;20025;-74
2022/07/21 04:52:47;;;;;;;19.45;14.40;;;;;;;17.41;100.00;100717.56;5067457;28;20098;-74
2022/07/21 04:55:13;;;;;;;22.40;15.15;;;;;;;17.56;100.00;100744.88;5061047;28;20479;-73
2022/07/21 04:57:50;;;;;;;16.25;14.45;;;;;;;17.57;100.00;100746.56;5064301;28;20040;-74
2022/07/21 05:00:18;;;;;;;20.35;15.35;;;;;;;17.55;100.00;100737.81;5068425;28;20036;-73
2022/07/21 05:02:44;;;;;;;16.88;13.18;;;;;;;17.50;100.00;100737.31;5079137;28;20031;-73
2022/07/21 05:05:10;;;;;;;19.80;14.05;;;;;;;17.56;100.00;100739.53;5080214;28;20032;-73
2022/07/21 05:07:36;;;;;;;17.58;13.15;;;;;;;17.48;100.00;100726.78;5086522;28;20033;-73
2022/07/21 05:10:05;;;;;;;21.38;13.73;;;;;;;17.62;100.00;100745.25;5069138;28;20070;-74
2022/07/21 05:12:31;;;;;;;15.13;13.10;;;;;;;17.48;100.00;100731.25;5066456;28;20090;-74
2022/07/21 05:14:57;;;;;;;18.98;13.65;;;;;;;17.64;100.00;100739.84;5071330;28;20047;-74
2022/07/21 05:17:22;;;;;;;15.52;13.15;;;;;;;17.67;100.00;100742.28;5070644;28;20051;-74
2022/07/21 05:19:50;;;;;;;16.67;12.43;;;;;;;17.53;100.00;100723.78;5060716;28;20021;-74
2022/07/21 05:22:16;;;;;;;17.77;13.13;;;;;;;17.71;100.00;100743.75;5095353;27;20024;-73
2022/07/21 05:24:41;;;;;;;16.67;12.15;;;;;;;17.70;100.00;100747.34;5076773;28;20024;-73
2022/07/21 05:27:07;;;;;;;15.68;12.50;;;;;;;17.68;100.00;100739.47;5085218;28;20386;-74
2022/07/21 05:29:32;;;;;;;16.98;13.73;;;;;;;17.71;100.00;100759.69;5066185;28;20368;-73
2022/07/21 05:31:57;;;;;;;21.52;12.98;;;;;;;17.70;100.00;100750.00;5073994;28;20055;-74
2022/07/21 05:34:23;;;;;;;16.90;12.40;;;;;;;17.71;100.00;100751.72;5080107;28;20039;-74
2022/07/21 05:36:48;;;;;;;17.08;12.48;;;;;;;17.70;100.00;100758.84;5074003;28;20578;-73
2022/07/21 05:39:13;;;;;;;16.27;13.25;;;;;;;17.62;100.00;100733.78;5062731;28;20032;-73
2022/07/21 05:41:39;;;;;;;16.83;11.05;;;;;;;17.64;100.00;100737.19;5076031;28;20448;-74
2022/07/21 05:44:04;;;;;;;15.88;11.70;;;;;;;17.71;100.00;100743.75;5076147;28;20083;-73
2022/07/21 05:46:30;;;;;;;20.55;12.35;;;;;;;17.74;100.00;100743.50;5066954;28;20420;-72
2022/07/21 05:48:55;;;;;;;17.88;11.93;;;;;;;17.82;100.00;100757.06;5057837;28;20033;-74
2022/07/21 05:51:20;;;;;;;14.52;11.35;;;;;;;17.83;100.00;100753.44;5061783;28;20033;-73
2022/07/21 05:53:46;;;;;;;20.27;12.02;;;;;;;17.65;100.00;100723.75;5055705;28;20028;-73
2022/07/21 05:56:12;;;;;;;18.38;12.13;;;;;;;17.81;100.00;100745.56;5081901;28;20402;-75
2022/07/21 05:58:38;;;;;;;17.52;11.73;;;;;;;17.91;100.00;100747.56;5061721;28;20116;-75
2022/07/21 06:01:12;;;;;;;22.75;14.48;;;;;;;17.86;100.00;100732.81;5061315;28;20029;-72
2022/07/21 06:03:48;;;;;;;15.60;12.30;;;;;;;17.92;100.00;100736.81;5063543;28;20045;-74
2022/07/21 06:06:16;;;;;;;16.33;12.70;;;;;;;18.01;100.00;100732.63;5055748;28;20029;-74
2022/07/21 06:08:42;;;;;;;19.38;13.40;;;;;;;18.04;100.00;100741.22;5066174;28;20640;-74
2022/07/21 06:11:09;;;;;;;22.90;14.00;;;;;;;18.14;100.00;100752.84;5067719;28;20071;-73
2022/07/21 06:13:34;;;;;;;16.20;13.30;;;;;;;18.13;100.00;100766.25;5086700;28;20024;-74
2022/07/21 06:16:00;;;;;;;17.05;12.50;;;;;;;18.16;100.00;100777.50;5059734;28;20373;-73
2022/07/21 06:18:25;;;;;;;15.05;12.88;;;;;;;17.99;100.00;100750.47;5073123;28;20031;-74
2022/07/21 06:20:51;;;;;;;15.93;12.90;;;;;;;18.15;100.00;100781.13;5073608;28;20021;-73
2022/07/21 06:23:16;;;;;;;24.95;13.52;;;;;;;17.96;100.00;100745.41;5079683;28;20161;-72
2022/07/21 06:25:42;;;;;;;18.80;12.75;;;;;;;18.02;100.00;100759.09;5062752;28;20028;-72
2022/07/21 06:28:07;;;;;;;15.85;12.57;;;;;;;18.08;100.00;100769.25;5085929;28;20090;-73
2022/07/21 06:30:32;;;;;;;15.80;13.07;;;;;;;18.10;100.00;100764.69;5091892;28;20037;-73
2022/07/21 06:32:58;;;;;;;16.63;11.48;;;;;;;18.15;100.00;100767.00;5079007;28;20032;-71
2022/07/21 06:35:23;;;;;;;17.95;12.38;;;;;;;18.14;100.00;100762.63;5077025;28;20036;-74
2022/07/21 06:37:49;;;;;;;17.33;13.13;;;;;;;18.18;100.00;100766.78;5073147;28;20036;-72
2022/07/21 06:40:14;;;;;;;13.60;11.85;;;;;;;18.35;100.00;100785.78;5074258;28;20032;-73
2022/07/21 06:42:39;;;;;;;16.52;13.13;;;;;;;18.27;100.00;100774.91;5085259;28;20029;-74
2022/07/21 06:45:06;;;;;;;15.93;12.27;;;;;;;18.31;100.00;100776.38;5085085;28;20042;-74
2022/07/21 06:47:31;;;;;;;17.30;12.85;;;;;;;18.17;100.00;100752.63;5072779;28;20158;-72
2022/07/21 06:50:02;;;;;;;16.85;13.40;;;;;;;18.46;100.00;100789.44;5063805;28;20121;-73
2022/07/21 06:52:27;;;;;;;19.98;14.15;;;;;;;18.59;100.00;100790.25;5070580;28;20028;-73
2022/07/21 06:54:53;;;;;;;18.17;13.10;;;;;;;18.62;100.00;100790.00;5080718;28;20687;-72
2022/07/21 06:57:18;;;;;;;16.55;13.70;;;;;;;18.70;100.00;100808.88;5089788;28;20387;-74
2022/07/21 06:59:43;;;;;;;17.52;13.02;;;;;;;18.50;100.00;100774.94;5067515;28;20480;-72
2022/07/21 07:02:09;;;;;;;15.32;12.48;;;;;;;18.57;100.00;100781.53;5080051;28;20024;-74
2022/07/21 07:04:34;;;;;;;18.48;13.63;;;;;;;18.70;100.00;100807.06;5081481;28;20028;-74
2022/07/21 07:06:59;;;;;;;18.88;13.82;;;;;;;18.75;100.00;100806.72;5078286;28;20367;-70
2022/07/21 07:09:25;;;;;;;17.50;14.25;;;;;;;18.62;100.00;100782.03;5076026;28;20032;-73
2022/07/21 07:11:54;;;;;;;18.52;13.23;;;;;;;18.79;100.00;100809.00;5088895;28;20032;-73
2022/07/21 07:14:20;;;;;;;16.33;12.85;;;;;;;18.70;100.00;100788.44;5096190;28;20034;-74
2022/07/21 07:16:46;;;;;;;17.98;12.80;;;;;;;18.73;100.00;100790.00;5052058;28;20124;-75
2022/07/21 07:19:11;;;;;;;17.63;13.35;;;;;;;18.80;100.00;100783.25;5072694;28;20584;-74
2022/07/21 07:21:36;;;;;;;19.92;13.15;;;;;;;18.89;100.00;100801.19;5074177;28;20033;-73
2022/07/21 07:24:02;;;;;;;17.80;13.82;;;;;;;18.78;100.00;100785.19;5070578;28;20399;-71
2022/07/21 07:26:28;;;;;;;20.17;13.18;;;;;;;18.92;100.00;100803.59;5086127;28;20024;-72
2022/07/21 07:28:54;;;;;;;17.17;12.07;;;;;;;18.75;100.00;100780.97;5070360;28;20028;-73
2022/07/21 07:31:19;;;;;;;17.40;12.10;;;;;;;18.86;100.00;100801.41;5077430;28;20149;-72
2022/07/21 07:33:44;;;;;;;16.13;12.18;;;;;;;18.77;100.00;100783.47;5073020;28;20394;-74
2022/07/21 07:36:12;;;;;;;16.20;11.77;;;;;;;18.73;100.00;100776.69;5055501;28;20028;-73
2022/07/21 07:38:38;;;;;;;16.05;12.18;;;;;;;18.78;100.00;100790.50;5073713;28;20029;-74
2022/07/21 07:41:04;;;;;;;14.15;11.50;;;;;;;18.26;100.00;100703.16;5065768;28;20020;-74
2022/07/21 07:43:29;;;;;;;14.48;10.68;;;;;;;18.81;100.00;100801.78;5072649;28;20468;-75
2022/07/21 07:45:55;;;;;;;14.18;11.52;;;;;;;18.80;100.00;100794.75;5069590;28;20029;-72
2022/07/21 07:48:20;;;;;;;17.95;13.30;;;;;;;18.78;100.00;100782.53;5072609;28;20024;-74
2022/07/21 07:50:45;;;;;;;21.27;12.10;;;;;;;18.73;100.00;100776.69;5072229;28;20064;-73
2022/07/21 07:53:11;;;;;;;16.60;11.23;;;;;;;18.73;100.00;100787.34;5067267;28;20025;-74
2022/07/21 07:55:36;;;;;;;17.00;13.27;;;;;;;18.30;100.00;100729.44;5053831;28;20037;-75
2022/07/21 07:58:02;;;;;;;14.35;11.73;;;;;;;18.70;100.00;100803.56;5068446;28;20028;-73
2022/07/21 08:00:27;;;;;;;15.50;12.60;;;;;;;18.49;100.00;100778.56;5082107;28;20028;-74
2022/07/21 08:02:53;;;;;;;18.55;12.45;;;;;;;18.56;100.00;100790.47;5073243;28;20032;-73
2022/07/21 08:05:18;;;;;;;18.92;13.40;;;;;;;18.48;100.00;100788.38;5052081;28;20021;-74
2022/07/21 08:07:43;;;;;;;16.67;12.52;;;;;;;18.44;100.00;100784.25;5061521;28;20028;-76
2022/07/21 08:10:12;;;;;;;16.88;12.40;;;;;;;18.54;100.00;100803.06;5063239;28;20028;-75
2022/07/21 08:12:38;;;;;;;15.02;12.43;;;;;;;18.22;100.00;100757.56;5064951;28;20024;-74
2022/07/21 08:15:04;;;;;;;18.55;13.80;;;;;;;18.27;100.00;100798.84;5053203;28;20075;-73
2022/07/21 08:17:29;;;;;;;22.70;13.82;;;;;;;18.01;100.00;100786.66;5045481;28;20032;-72
2022/07/21 08:19:55;;;;;;;21.35;15.13;;;;;;;18.03;100.00;100802.47;5058534;28;20034;-74
2022/07/21 08:22:20;;;;;;;19.58;14.13;;;;;;;17.85;100.00;100794.91;5065621;28;20839;-72
2022/07/21 08:24:45;;;;;;;24.23;16.88;;;;;;;17.71;100.00;100792.41;5056172;28;20120;-72
2022/07/21 08:27:11;;;;;;;22.45;15.82;;;;;;;17.67;100.00;100801.59;5071983;28;20475;-71
2022/07/21 08:29:36;;;;;;;21.90;16.88;;;;;;;17.62;100.00;100808.19;5064711;28;20127;-71
2022/07/21 08:32:02;;;;;;;24.75;17.63;;;;;;;17.55;100.00;100817.53;5057120;28;20032;-71
2022/07/21 08:34:27;;;;;;;22.75;17.33;;;;;;;17.42;100.00;100795.47;5067893;28;20033;-72
2022/07/21 08:36:53;;;;;;;20.95;17.38;;;;;;;17.33;100.00;100795.19;5064768;28;20048;-70
2022/07/21 08:39:18;;;;;;;25.58;20.27;;;;;;;17.47;100.00;100811.94;5057174;28;20166;-71
2022/07/21 08:41:44;;;;;;;30.08;20.00;;;;;;;17.26;100.00;100780.66;5062485;28;20025;-72
2022/07/21 08:44:10;;;;;;;25.70;18.95;;;;;;;17.47;100.00;100810.13;5067140;28;20028;-72
2022/07/21 08:46:37;;;;;;;25.63;21.50;;;;;;;17.42;100.00;100806.09;5070581;28;20078;-72
2022/07/21 08:49:03;;;;;;;21.50;19.15;;;;;;;17.32;100.00;100804.09;5051801;28;20067;-71
2022/07/21 08:51:33;;;;;;;20.88;18.73;;;;;;;17.35;100.00;100806.53;5065018;28;20556;-70
2022/07/21 08:53:58;;;;;;;22.75;20.27;;;;;;;17.27;100.00;100803.56;5065269;28;20041;-72
2022/07/21 08:56:24;;;;;;;24.77;22.23;;;;;;;16.74;100.00;100714.47;5052900;28;20045;-70
2022/07/21 08:58:49;;;;;;;26.75;23.40;;;;;;;17.45;100.00;100805.88;5054378;28;20119;-72
2022/07/21 09:01:15;;;;;;;34.63;25.77;;;;;;;17.44;100.00;100809.50;5073660;28;20368;-72
2022/07/21 09:03:40;;;;;;;33.95;26.27;;;;;;;17.41;100.00;100799.94;5072754;28;20029;-75
2022/07/21 09:06:11;;;;;;;38.08;26.50;;;;;;;17.45;100.00;100811.19;5066922;28;20428;-72
2022/07/21 09:08:47;;;;;;;31.23;25.27;;;;;;;17.14;100.00;100764.72;5069350;28;20029;-72
2022/07/21 09:11:17;;;;;;;39.72;26.42;;;;;;;17.41;100.00;100809.69;5067002;28;20029;-72
2022/07/21 09:13:43;;;;;;;27.08;24.05;;;;;;;17.09;100.00;100751.78;5064670;28;20089;-70
2022/07/21 09:16:09;;;;;;;28.95;25.85;;;;;;;17.42;100.00;100806.94;5052113;28;20036;-72
2022/07/21 09:18:47;;;;;;;29.77;24.55;;;;;;;17.33;100.00;100791.69;5065226;28;20029;-72
2022/07/21 09:21:15;;;;;;;33.00;25.67;;;;;;;17.38;100.00;100795.69;5075071;28;20043;-73
2022/07/21 09:23:40;;;;;;;29.60;24.05;;;;;;;17.53;100.00;100814.16;5052797;28;20031;-72
2022/07/21 09:26:06;;;;;;;30.02;24.65;;;;;;;17.47;100.00;100802.16;5053012;28;20037;-73
2022/07/21 09:28:31;;;;;;;36.58;23.05;;;;;;;17.31;100.00;100778.50;5062879;28;20044;-72
2022/07/21 09:30:59;;;;;;;24.00;21.00;;;;;;;17.54;100.00;100813.19;5061411;28;20044;-73
2022/07/21 09:33:28;;;;;;;24.20;21.67;;;;;;;17.59;100.00;100819.91;5056383;28;20082;-72
2022/07/21 09:35:54;;;;;;;29.38;21.33;;;;;;;17.64;100.00;100822.22;5059910;28;20481;-72
2022/07/21 09:38:19;;;;;;;20.90;18.80;;;;;;;17.35;100.00;100777.31;5053902;28;20100;-73
2022/07/21 09:40:48;;;;;;;24.02;17.80;;;;;;;17.58;100.00;100822.66;5059113;28;20140;-72
2022/07/21 09:43:41;;;;;;;21.63;16.50;;;;;;;17.43;100.00;100797.16;5064156;28;20112;-73
2022/07/21 09:46:09;;;;;;;17.73;14.82;;;;;;;17.32;100.00;100777.53;5068347;28;20048;-73
2022/07/21 09:48:36;;;;;;;16.35;14.27;;;;;;;17.52;100.00;100828.38;5081387;28;20035;-72
2022/07/21 09:51:27;;;;;;;18.17;13.48;;;;;;;17.47;100.00;100814.59;5077030;28;20024;-72
2022/07/21 09:53:58;;;;;;;18.25;14.45;;;;;;;17.41;100.00;100812.34;5053696;28;20044;-73
2022/07/21 09:56:25;;;;;;;15.32;12.00;;;;;;;17.40;100.00;100824.81;5059987;28;20526;-73
2022/07/21 09:58:52;;;;;;;13.38;11.88;;;;;;;17.42;100.00;100822.03;5059006;28;20078;-73
2022/07/21 10:01:19;;;;;;;18.73;13.40;;;;;;;17.43;100.00;100835.22;5056633;28;20043;-73
2022/07/21 10:03:46;;;;;;;11.63;10.52;;;;;;;17.36;100.00;100828.66;5061809;28;20025;-72
2022/07/21 10:06:12;;;;;;;14.63;12.77;;;;;;;17.35;100.00;100821.63;5065916;28;20048;-74
2022/07/21 10:08:38;;;;;;;16.00;13.02;;;;;;;17.35;100.00;100832.25;5057987;28;20044;-74
2022/07/21 10:11:05;;;;;;;14.95;12.65;;;;;;;17.25;100.00;100821.44;5058510;28;20073;-74
2022/07/21 10:13:30;;;;;;;19.75;14.75;;;;;;;17.31;100.00;100828.09;5073633;28;20364;-75
2022/07/21 10:15:57;;;;;;;17.92;16.17;;;;;;;17.32;100.00;100830.66;5054709;28;20032;-74
2022/07/21 10:18:25;;;;;;;23.23;18.20;;;;;;;17.29;100.00;100828.25;5066960;28;20086;-74
2022/07/21 10:20:59;;;;;;;23.95;20.92;;;;;;;17.27;100.00;100819.50;5064243;28;20032;-73
2022/07/21 10:23:35;;;;;;;24.83;22.17;;;;;;;17.22;100.00;100819.00;5072593;28;20027;-73
2022/07/21 10:26:02;;;;;;;28.23;23.05;;;;;;;17.28;100.00;100831.84;5061255;28;20478;-74
2022/07/21 10:28:28;;;;;;;27.13;24.38;;;;;;;17.18;100.00;100820.16;5056071;28;20046;-73
2022/07/21 10:30:56;;;;;;;33.53;27.25;;;;;;;16.99;100.00;100801.19;5062448;28;20111;-71
2022/07/21 10:33:45;;;;;;;34.33;26.98;;;;;;;17.27;100.00;100847.91;5047449;28;20100;-73
2022/07/21 10:36:27;;;;;;;28.55;25.08;;;;;;;17.24;100.00;100851.59;5053100;28;20093;-73
2022/07/21 10:39:10;;;;;;;31.67;25.63;;;;;;;17.29;100.00;100854.81;5064130;28;20103;-73
2022/07/21 10:41:37;;;;;;;28.55;25.63;;;;;;;17.33;100.00;100860.75;5077819;28;20078;-73
2022/07/21 10:44:28;;;;;;;30.92;24.48;;;;;;;17.32;100.00;100859.91;5076779;28;20052;-73
2022/07/21 10:47:02;;;;;;;28.20;24.98;;;;;;;17.32;100.00;100856.38;5064163;28;20029;-72
2022/07/21 10:49:48;;;;;;;28.23;23.30;;;;;;;17.24;100.00;100843.63;5058033;28;20158;-73
2022/07/21 10:52:35;;;;;;;27.30;23.25;;;;;;;17.31;100.00;100860.00;5054932;28;20353;-72
2022/07/21 10:55:09;;;;;;;27.73;24.40;;;;;;;17.36;100.00;100863.19;5067745;28;20025;-72
2022/07/21 10:57:44;;;;;;;27.92;24.58;;;;;;;17.32;100.00;100854.59;5055170;28;20037;-72
2022/07/21 11:00:29;;;;;;;30.15;25.38;;;;;;;17.40;100.00;100858.50;5062011;28;21352;-72
2022/07/21 11:02:59;;;;;;;33.17;25.42;;;;;;;17.41;100.00;100865.50;5065963;28;20056;-71